Time;durP1;ratioP1;P1;durP2;ratioP2;P2;SDS_P1;SDS_P2;PMS_P1;PMS_P2;Temp;Humidity;BMP_temperature;BMP_pressure;BME280_temperature;BME280_humidity;BME280_pressure;Samples;Min_cycle;Max_cycle;Signal;HPM_P1;HPM_P2
2022/06/01 00:01:05;;;;;;;5.10;3.78;;;;;;;12.67;82.46;99098.38;5115896;28;20198;-87
2022/06/01 00:03:33;;;;;;;5.80;3.90;;;;;;;12.65;82.98;99100.31;5115816;28;20196;-86
2022/06/01 00:06:00;;;;;;;5.20;3.50;;;;;;;12.73;82.85;99102.47;5115263;28;20557;-88
2022/06/01 00:08:28;;;;;;;3.50;3.20;;;;;;;12.60;83.80;99102.50;5115704;28;20180;-88
2022/06/01 00:10:57;;;;;;;5.55;3.80;;;;;;;12.66;84.31;99104.78;5114758;28;20228;-87
2022/06/01 00:13:24;;;;;;;8.05;3.75;;;;;;;12.79;83.33;99101.13;5115753;28;20682;-87
2022/06/01 00:15:51;;;;;;;5.30;3.22;;;;;;;12.97;82.10;99102.44;5115958;28;20195;-87
2022/06/01 00:18:17;;;;;;;3.90;3.50;;;;;;;12.88;82.64;99112.09;5115775;28;20669;-88
2022/06/01 00:20:45;;;;;;;4.30;3.90;;;;;;;12.84;83.00;99107.03;5116081;28;20638;-87
2022/06/01 00:23:13;;;;;;;4.78;3.92;;;;;;;12.79;83.37;99112.78;5115755;28;20188;-86
2022/06/01 00:25:41;;;;;;;5.00;3.58;;;;;;;12.82;83.25;99107.19;5115795;28;20649;-86
2022/06/01 00:28:07;;;;;;;4.47;3.88;;;;;;;12.81;83.83;99107.28;5115259;28;20191;-86
2022/06/01 00:30:35;;;;;;;4.53;4.13;;;;;;;12.86;83.53;99105.94;5114967;28;20208;-86
2022/06/01 00:33:02;;;;;;;5.22;3.50;;;;;;;13.20;81.19;99116.91;5114779;28;20661;-86
2022/06/01 00:35:29;;;;;;;4.60;3.90;;;;;;;13.07;81.96;99111.59;5115321;28;20275;-87
2022/06/01 00:37:55;;;;;;;4.85;3.60;;;;;;;12.91;82.60;99113.69;5115305;28;20634;-86
2022/06/01 00:40:29;;;;;;;4.13;3.72;;;;;;;12.76;84.75;99117.59;5115099;28;20190;-86
2022/06/01 00:42:59;;;;;;;4.10;3.67;;;;;;;12.70;85.52;99127.00;5110445;28;20184;-86
2022/06/01 00:45:28;;;;;;;5.95;4.10;;;;;;;12.63;85.91;99126.59;5094813;28;20191;-87
2022/06/01 00:47:55;;;;;;;6.22;4.15;;;;;;;12.75;85.55;99122.09;5095046;28;20181;-87
2022/06/01 00:50:26;;;;;;;4.90;3.88;;;;;;;12.70;86.03;99122.44;5094419;28;20231;-86
2022/06/01 00:52:57;;;;;;;4.50;4.03;;;;;;;12.64;86.78;99114.81;5099366;28;20184;-87
2022/06/01 00:55:28;;;;;;;6.32;4.75;;;;;;;12.78;85.58;99115.63;5114540;28;20195;-87
2022/06/01 00:58:02;;;;;;;3.85;3.35;;;;;;;12.69;86.20;99117.19;5114280;28;20184;-87
2022/06/01 01:00:32;;;;;;;5.60;3.97;;;;;;;12.94;84.32;99117.06;5115166;28;20184;-88
2022/06/01 01:03:02;;;;;;;5.07;3.70;;;;;;;12.86;85.12;99119.47;5114740;28;20195;-87
2022/06/01 01:05:32;;;;;;;8.07;4.25;;;;;;;13.06;83.77;99123.34;5114994;28;20200;-87
2022/06/01 01:08:01;;;;;;;6.18;4.20;;;;;;;13.22;82.32;99133.00;5115135;28;20268;-87
2022/06/01 01:10:28;;;;;;;4.60;3.50;;;;;;;13.12;82.71;99124.75;5114996;28;20308;-88
2022/06/01 01:12:59;;;;;;;4.97;3.90;;;;;;;12.89;84.49;99121.09;5114193;28;20198;-87
2022/06/01 01:15:34;;;;;;;5.30;4.15;;;;;;;12.87;84.97;99120.34;5114645;28;20191;-86
2022/06/01 01:18:02;;;;;;;5.10;3.90;;;;;;;12.84;85.41;99118.72;5114917;28;20184;-87
2022/06/01 01:20:31;;;;;;;4.07;3.40;;;;;;;12.87;85.54;99118.50;5114843;28;20209;-87
2022/06/01 01:23:07;;;;;;;4.95;3.80;;;;;;;12.97;85.41;99115.94;5113759;28;20192;-87
2022/06/01 01:25:38;;;;;;;3.97;3.60;;;;;;;12.96;84.89;99125.06;5114669;28;20179;-86
2022/06/01 01:28:05;;;;;;;5.68;3.88;;;;;;;12.94;85.33;99121.59;5114258;28;20184;-87
2022/06/01 01:30:44;;;;;;;5.32;3.92;;;;;;;12.92;85.78;99129.81;5114047;28;20204;-87
2022/06/01 01:33:14;;;;;;;6.63;4.28;;;;;;;12.90;85.55;99126.34;5114228;28;20206;-87
2022/06/01 01:35:42;;;;;;;7.50;3.90;;;;;;;12.98;84.43;99123.09;5114123;28;20188;-87
2022/06/01 01:38:11;;;;;;;13.07;5.13;;;;;;;13.14;84.01;99129.06;5113967;28;20240;-87
2022/06/01 01:40:39;;;;;;;5.65;4.22;;;;;;;12.80;86.13;99129.84;5113552;28;20191;-86
2022/06/01 01:43:07;;;;;;;5.13;4.43;;;;;;;12.76;86.61;99133.78;5113836;28;20274;-87
2022/06/01 01:45:37;;;;;;;7.38;4.07;;;;;;;12.81;86.37;99132.47;5113949;28;20253;-87
2022/06/01 01:48:04;;;;;;;5.63;3.85;;;;;;;12.80;86.17;99124.47;5113609;28;20187;-86
2022/06/01 01:50:31;;;;;;;5.28;4.00;;;;;;;13.00;84.67;99129.25;5113219;28;20239;-86
2022/06/01 01:52:58;;;;;;;5.35;3.58;;;;;;;12.69;86.63;99125.28;5113618;28;20187;-87
2022/06/01 01:55:36;;;;;;;4.85;3.65;;;;;;;12.66;88.00;99126.38;5113766;28;20188;-87
2022/06/01 01:58:14;;;;;;;5.35;4.20;;;;;;;12.85;86.87;99122.28;5113363;28;20189;-87
2022/06/01 02:00:45;;;;;;;5.43;4.20;;;;;;;12.94;86.09;99130.56;5113847;28;20182;-87
2022/06/01 02:03:18;;;;;;;4.90;3.83;;;;;;;12.77;87.64;99147.16;5113853;28;20185;-86
2022/06/01 02:06:05;;;;;;;5.32;3.85;;;;;;;12.65;88.85;99143.53;5113852;28;20180;-86
2022/06/01 02:08:36;;;;;;;4.35;3.95;;;;;;;12.86;87.70;99146.47;5113088;28;20281;-86
2022/06/01 02:13:56;;;;;;;4.97;4.10;;;;;;;12.89;87.03;99140.88;5112361;28;20556;-86
2022/06/01 02:16:26;;;;;;;6.53;4.00;;;;;;;13.00;86.66;99131.94;5112348;28;20184;-87
2022/06/01 02:18:56;;;;;;;5.88;3.22;;;;;;;13.05;86.57;99123.50;5102550;28;20545;-87
2022/06/01 02:21:26;;;;;;;4.88;3.72;;;;;;;13.01;86.48;99135.50;5112849;28;20196;-87
2022/06/01 02:23:56;;;;;;;5.50;3.50;;;;;;;12.82;88.06;99141.41;5113035;28;20191;-87
2022/06/01 02:26:22;;;;;;;4.45;3.83;;;;;;;12.79;89.08;99131.69;5113428;28;20200;-88
2022/06/01 02:28:55;;;;;;;4.30;3.83;;;;;;;12.76;88.85;99117.59;5113037;28;20284;-87
2022/06/01 02:31:24;;;;;;;5.43;4.40;;;;;;;12.65;90.25;99132.72;5112966;28;20210;-87
2022/06/01 02:33:52;;;;;;;4.72;3.95;;;;;;;12.49;91.51;99134.84;5113316;28;20180;-87
2022/06/01 02:36:20;;;;;;;4.32;3.95;;;;;;;12.69;90.51;99123.44;5113110;28;20189;-88
2022/06/01 02:38:50;;;;;;;4.38;3.28;;;;;;;12.67;90.49;99114.59;5112437;28;20198;-86
2022/06/01 02:44:01;;;;;;;6.97;3.90;;;;;;;12.47;92.82;99112.50;5092296;28;20188;-86
2022/06/01 02:46:30;;;;;;;6.30;4.30;;;;;;;12.60;91.69;99118.72;5092286;28;20199;-86
2022/06/01 02:48:57;;;;;;;4.47;3.65;;;;;;;12.65;91.38;99110.28;5111182;28;20195;-87
2022/06/01 02:51:24;;;;;;;7.88;4.57;;;;;;;12.75;90.60;99103.19;5112328;28;20231;-86
2022/06/01 02:53:51;;;;;;;6.55;3.90;;;;;;;12.52;91.95;99110.31;5113027;28;20183;-87
2022/06/01 02:56:17;;;;;;;5.68;3.95;;;;;;;12.42;93.70;99099.34;5112586;28;20668;-88
2022/06/01 02:58:44;;;;;;;5.15;4.07;;;;;;;12.11;96.75;99114.19;5111894;28;20213;-87
2022/06/01 03:01:11;;;;;;;7.15;3.75;;;;;;;12.17;98.11;99118.31;5112740;28;20280;-87
2022/06/01 03:03:39;;;;;;;5.18;4.10;;;;;;;12.28;96.75;99108.44;5112253;28;20199;-87
2022/06/01 03:06:06;;;;;;;3.75;3.22;;;;;;;12.26;96.84;99115.78;5112730;28;20579;-87
2022/06/01 03:08:33;;;;;;;11.70;5.40;;;;;;;12.17;98.36;99112.91;5112634;28;20187;-87
2022/06/01 03:11:00;;;;;;;5.20;4.15;;;;;;;11.99;99.68;99115.09;5112530;28;20638;-87
2022/06/01 03:13:27;;;;;;;9.60;4.20;;;;;;;11.70;100.00;99123.38;5112580;28;20176;-87
2022/06/01 03:15:55;;;;;;;10.23;5.82;;;;;;;11.83;100.00;99126.94;5112651;28;20543;-88
2022/06/01 03:18:22;;;;;;;5.30;4.25;;;;;;;11.64;100.00;99123.81;5112598;28;20641;-87
2022/06/01 03:20:50;;;;;;;7.18;4.78;;;;;;;11.66;100.00;99132.66;5112793;28;20211;-87
2022/06/01 03:23:19;;;;;;;6.07;4.65;;;;;;;11.62;100.00;99125.75;5112189;28;20560;-86
2022/06/01 03:25:45;;;;;;;7.10;4.80;;;;;;;11.57;100.00;99123.38;5112666;28;20959;-86
2022/06/01 03:28:12;;;;;;;5.82;4.38;;;;;;;11.57;100.00;99117.97;5112707;28;20635;-86
2022/06/01 03:30:39;;;;;;;5.32;4.22;;;;;;;11.79;100.00;99122.72;5112216;28;20206;-86
2022/06/01 03:33:05;;;;;;;7.45;4.90;;;;;;;11.92;100.00;99127.28;5112521;28;20187;-86
2022/06/01 03:35:33;;;;;;;9.32;4.50;;;;;;;11.88;100.00;99122.09;5112028;28;20180;-86
2022/06/01 03:38:02;;;;;;;5.03;4.32;;;;;;;11.66;100.00;99132.66;5112512;28;20203;-86
2022/06/01 03:40:31;;;;;;;6.18;4.63;;;;;;;11.52;100.00;99116.59;5111832;28;20198;-86
2022/06/01 03:42:58;;;;;;;6.53;4.60;;;;;;;11.56;100.00;99124.34;5112233;28;20207;-87
2022/06/01 03:48:08;;;;;;;6.00;4.53;;;;;;;11.52;100.00;99128.22;5098402;28;20300;-86
2022/06/01 03:50:36;;;;;;;4.50;4.00;;;;;;;11.40;100.00;99121.84;5115167;28;20583;-86
2022/06/01 03:53:05;;;;;;;6.57;4.70;;;;;;;11.58;100.00;99124.25;5115273;28;20192;-86
2022/06/01 03:55:32;;;;;;;6.90;4.90;;;;;;;11.44;100.00;99134.16;5116034;28;20632;-87
2022/06/01 03:57:58;;;;;;;4.80;3.83;;;;;;;11.30;100.00;99131.53;5115902;28;20187;-86
2022/06/01 04:00:26;;;;;;;6.85;4.43;;;;;;;11.32;100.00;99134.97;5115884;28;20210;-87
2022/06/01 04:02:53;;;;;;;5.38;4.40;;;;;;;11.40;100.00;99138.03;5107066;28;20177;-86
2022/06/01 04:05:22;;;;;;;5.43;4.93;;;;;;;11.56;100.00;99136.97;5095377;28;20626;-88
2022/06/01 04:07:49;;;;;;;8.23;4.60;;;;;;;11.53;100.00;99138.03;5095405;28;20196;-87
2022/06/01 04:10:17;;;;;;;6.57;4.38;;;;;;;11.68;100.00;99141.50;5095561;28;20211;-85
2022/06/01 04:12:44;;;;;;;7.88;4.95;;;;;;;11.81;100.00;99152.31;5104332;28;20217;-86
2022/06/01 04:15:11;;;;;;;7.13;4.05;;;;;;;11.33;100.00;99144.81;5115429;28;20188;-86
2022/06/01 04:17:38;;;;;;;6.32;4.50;;;;;;;11.33;100.00;99152.00;5115646;28;20203;-86
2022/06/01 04:20:07;;;;;;;5.00;4.28;;;;;;;11.43;100.00;99139.66;5115292;28;20543;-86
2022/06/01 04:22:36;;;;;;;6.38;5.03;;;;;;;11.43;100.00;99137.81;5114494;28;20190;-86
2022/06/01 04:25:02;;;;;;;11.00;5.53;;;;;;;11.56;100.00;99136.97;5114936;28;20194;-87
2022/06/01 04:27:30;;;;;;;7.55;4.70;;;;;;;11.72;100.00;99145.72;5115066;28;20271;-87
2022/06/01 04:29:57;;;;;;;6.22;4.60;;;;;;;11.86;100.00;99144.75;5114760;28;20199;-87
2022/06/01 04:32:26;;;;;;;5.10;4.50;;;;;;;11.82;100.00;99143.22;5115076;28;20575;-86
2022/06/01 04:34:52;;;;;;;7.32;5.30;;;;;;;11.82;100.00;99136.00;5114519;27;20645;-86
2022/06/01 04:37:19;;;;;;;5.90;4.80;;;;;;;11.73;100.00;99139.34;5114991;28;20195;-87
2022/06/01 04:39:46;;;;;;;6.45;4.70;;;;;;;11.83;100.00;99144.97;5115084;28;20187;-87
2022/06/01 04:42:12;;;;;;;5.47;4.70;;;;;;;11.75;100.00;99150.88;5114358;28;20179;-87
2022/06/01 04:44:41;;;;;;;8.00;5.40;;;;;;;11.84;100.00;99149.38;5114803;28;20729;-87
2022/06/01 04:47:08;;;;;;;7.30;5.25;;;;;;;11.98;100.00;99143.03;5114637;28;20186;-87
2022/06/01 04:49:34;;;;;;;7.20;5.70;;;;;;;12.05;100.00;99138.91;5114346;28;20187;-87
2022/06/01 04:52:01;;;;;;;5.95;4.95;;;;;;;12.18;100.00;99144.31;5114920;28;20225;-87
2022/06/01 04:54:28;;;;;;;7.28;5.82;;;;;;;12.24;100.00;99143.88;5114892;28;20183;-86
2022/06/01 04:56:54;;;;;;;12.10;6.55;;;;;;;12.32;99.87;99152.25;5114575;28;20609;-86
2022/06/01 04:59:21;;;;;;;7.65;5.97;;;;;;;12.36;98.92;99144.81;5114513;28;20192;-87
2022/06/01 05:01:49;;;;;;;7.10;5.00;;;;;;;12.42;97.66;99155.19;5114340;28;20538;-87
2022/06/01 05:04:16;;;;;;;7.82;5.50;;;;;;;12.53;96.58;99141.75;5114662;28;20514;-87
2022/06/01 05:06:43;;;;;;;6.72;5.63;;;;;;;12.71;95.91;99142.25;5113564;28;20230;-87
2022/06/01 05:09:09;;;;;;;6.72;5.18;;;;;;;12.52;96.53;99142.72;5114579;28;20203;-87
2022/06/01 05:11:36;;;;;;;6.35;5.60;;;;;;;12.62;96.45;99137.53;5114286;28;20214;-87
2022/06/01 05:14:02;;;;;;;7.32;5.22;;;;;;;12.68;96.15;99146.00;5113864;28;20275;-86
2022/06/01 05:16:29;;;;;;;10.57;5.55;;;;;;;12.79;94.79;99147.91;5113755;28;20564;-88
2022/06/01 05:18:57;;;;;;;9.48;5.65;;;;;;;13.00;93.99;99148.16;5113700;28;20188;-87
2022/06/01 05:21:24;;;;;;;9.50;6.30;;;;;;;13.22;91.41;99154.63;5114182;28;20273;-86
2022/06/01 05:23:51;;;;;;;8.05;6.10;;;;;;;13.39;90.10;99151.53;5113738;28;20194;-87
2022/06/01 05:26:17;;;;;;;6.97;5.43;;;;;;;13.50;88.71;99154.28;5113835;28;20198;-85
2022/06/01 05:28:44;;;;;;;6.50;5.50;;;;;;;13.61;88.61;99153.44;5112835;28;20200;-87
2022/06/01 05:31:12;;;;;;;10.73;7.50;;;;;;;14.04;85.00;99160.91;5094414;28;20198;-87
2022/06/01 05:33:43;;;;;;;8.27;5.95;;;;;;;14.02;84.55;99162.00;5112588;28;20704;-86
2022/06/01 05:36:11;;;;;;;8.15;6.50;;;;;;;14.15;83.60;99149.19;5113302;28;20190;-86
2022/06/01 05:38:38;;;;;;;8.43;6.28;;;;;;;14.10;83.74;99154.13;5113758;28;20284;-86
2022/06/01 05:41:04;;;;;;;9.77;6.05;;;;;;;14.17;83.42;99158.06;5113020;28;20194;-85
2022/06/01 05:43:33;;;;;;;11.55;5.90;;;;;;;14.17;83.10;99155.34;5113192;28;20208;-85
2022/06/01 05:46:00;;;;;;;14.27;11.75;;;;;;;14.38;82.06;99153.66;5113113;28;20192;-86
2022/06/01 05:48:27;;;;;;;10.95;7.53;;;;;;;14.72;79.81;99155.44;5113046;28;20607;-87
2022/06/01 05:50:53;;;;;;;10.98;6.38;;;;;;;14.85;77.91;99152.59;5112560;28;20222;-85
2022/06/01 05:53:21;;;;;;;13.27;7.82;;;;;;;15.11;76.46;99156.72;5112647;28;20203;-85
2022/06/01 05:55:49;;;;;;;14.45;7.40;;;;;;;15.30;74.53;99150.59;5112226;28;20233;-86
2022/06/01 05:58:18;;;;;;;13.82;7.50;;;;;;;15.10;75.13;99157.69;5112804;28;20506;-85
2022/06/01 06:00:46;;;;;;;11.88;7.60;;;;;;;14.79;77.69;99159.41;5112398;28;20185;-85
2022/06/01 06:03:16;;;;;;;15.32;7.32;;;;;;;14.93;76.70;99167.25;5112733;28;20575;-85
2022/06/01 06:08:50;;;;;;;14.00;8.27;;;;;;;15.17;74.60;99169.78;5111794;28;20241;-84
2022/06/01 06:11:20;;;;;;;14.02;9.50;;;;;;;15.41;73.40;99168.66;5111751;28;20285;-85
2022/06/01 06:13:47;;;;;;;16.45;10.02;;;;;;;15.30;71.55;99171.44;5112542;28;20533;-85
2022/06/01 06:16:16;;;;;;;16.98;10.18;;;;;;;15.19;72.96;99169.63;5112676;28;20197;-87
2022/06/01 06:18:42;;;;;;;18.52;9.82;;;;;;;15.48;71.47;99180.72;5112508;28;20193;-82
2022/06/01 06:21:09;;;;;;;14.45;9.15;;;;;;;15.56;70.35;99183.66;5105481;28;20211;-82
2022/06/01 06:23:36;;;;;;;12.60;8.30;;;;;;;15.28;71.51;99184.25;5092085;28;20605;-84
2022/06/01 06:26:04;;;;;;;15.07;8.90;;;;;;;15.42;70.50;99183.94;5111916;28;20187;-85
2022/06/01 06:28:31;;;;;;;14.75;9.65;;;;;;;15.87;69.02;99186.47;5112155;28;20191;-85
2022/06/01 06:30:58;;;;;;;13.52;9.02;;;;;;;16.10;68.00;99189.91;5109899;28;20266;-83
2022/06/01 06:33:25;;;;;;;17.67;9.95;;;;;;;16.08;67.82;99191.00;5110372;28;20222;-83
2022/06/01 06:36:03;;;;;;;12.25;9.38;;;;;;;16.21;67.32;99189.81;5115475;28;20222;-83
2022/06/01 06:38:32;;;;;;;13.38;9.93;;;;;;;16.63;63.04;99183.41;5112563;28;20524;-84
2022/06/01 06:41:00;;;;;;;13.82;9.60;;;;;;;16.67;62.80;99193.03;5112708;28;20195;-85
2022/06/01 06:43:30;;;;;;;15.63;9.40;;;;;;;16.53;63.74;99194.25;5114499;28;20187;-85
2022/06/01 06:45:59;;;;;;;15.25;10.35;;;;;;;16.53;63.32;99193.38;5115988;27;20195;-84
2022/06/01 06:48:26;;;;;;;17.23;9.73;;;;;;;16.70;62.41;99184.56;5112018;28;20190;-85
2022/06/01 06:50:53;;;;;;;16.48;9.32;;;;;;;16.68;61.37;99187.41;5111775;28;20225;-85
2022/06/01 06:53:21;;;;;;;13.45;10.00;;;;;;;16.98;59.55;99191.13;5112550;28;20223;-87
2022/06/01 06:55:48;;;;;;;12.05;7.03;;;;;;;17.05;57.89;99180.56;5115453;28;20262;-90
2022/06/01 06:58:15;;;;;;;12.80;8.27;;;;;;;17.25;57.52;99179.59;5112305;28;20526;-85
2022/06/01 07:00:44;;;;;;;13.18;7.15;;;;;;;17.18;56.45;99188.44;5111359;28;20199;-86
2022/06/01 07:03:11;;;;;;;10.27;6.40;;;;;;;17.42;55.26;99191.59;5113148;28;20590;-84
2022/06/01 07:08:22;;;;;;;12.35;5.80;;;;;;;18.09;53.11;99180.81;5113311;28;20211;-86
2022/06/01 07:10:49;;;;;;;10.98;4.97;;;;;;;19.10;47.95;99191.88;5112608;28;20207;-87
2022/06/01 07:13:15;;;;;;;12.20;4.70;;;;;;;19.02;49.15;99183.59;5111373;28;20884;-85
2022/06/01 07:15:42;;;;;;;7.70;4.20;;;;;;;19.06;48.50;99182.25;5113277;28;20847;-89
2022/06/01 07:18:10;;;;;;;7.45;3.25;;;;;;;18.53;47.76;99192.00;5112930;28;20190;-87
2022/06/01 07:20:37;;;;;;;9.65;3.65;;;;;;;18.36;48.55;99201.84;5112997;28;20215;-87
2022/06/01 07:23:03;;;;;;;5.20;2.88;;;;;;;18.04;48.94;99194.84;5096523;28;20953;-87
2022/06/01 07:25:30;;;;;;;5.55;3.30;;;;;;;18.06;48.04;99198.31;5095803;28;20189;-87
2022/06/01 07:27:57;;;;;;;3.38;2.60;;;;;;;18.29;47.62;99195.22;5102363;28;20196;-87
2022/06/01 07:30:24;;;;;;;4.90;2.60;;;;;;;18.42;47.17;99186.72;5117114;28;20610;-88
2022/06/01 07:32:51;;;;;;;3.70;2.50;;;;;;;18.35;47.32;99200.09;5116987;28;20219;-87
2022/06/01 07:35:20;;;;;;;5.25;2.90;;;;;;;18.04;48.14;99202.19;5116129;28;20200;-88
2022/06/01 07:43:17;;;;;;;3.72;2.58;;;;;;;18.42;46.93;99206.66;5118458;28;20192;-86
2022/06/01 07:45:47;;;;;;;4.15;2.78;;;;;;;18.06;47.67;99206.47;5115628;28;20636;-86
2022/06/01 07:48:13;;;;;;;4.75;2.53;;;;;;;18.21;46.80;99216.94;5115689;28;20655;-85
2022/06/01 07:50:41;;;;;;;8.35;2.97;;;;;;;18.13;47.17;99212.19;5115502;28;20233;-89
2022/06/01 07:53:09;;;;;;;3.10;2.10;;;;;;;18.30;47.19;99219.63;5116091;28;20227;-87
2022/06/01 07:55:37;;;;;;;5.32;2.50;;;;;;;18.12;47.19;99219.53;5115608;28;20284;-90
2022/06/01 07:58:04;;;;;;;5.28;2.90;;;;;;;17.93;48.06;99219.53;5116303;28;20208;-88
2022/06/01 08:00:32;;;;;;;3.83;2.75;;;;;;;17.82;48.67;99211.53;5117722;28;20251;-87
2022/06/01 08:02:59;;;;;;;4.18;2.00;;;;;;;17.81;47.75;99221.56;5115744;28;20274;-88
2022/06/01 08:05:26;;;;;;;3.88;2.15;;;;;;;18.32;47.32;99214.88;5116036;28;20207;-88
2022/06/01 08:07:54;;;;;;;3.45;2.30;;;;;;;18.36;47.27;99217.31;5117301;28;20201;-88
2022/06/01 08:10:22;;;;;;;3.15;2.22;;;;;;;18.45;47.09;99220.03;5116143;28;20618;-89
2022/06/01 08:13:07;;;;;;;7.22;4.05;;;;;;;18.33;47.44;99219.31;5116528;28;20224;-88
2022/06/01 08:15:35;;;;;;;4.40;3.10;;;;;;;18.51;46.93;99224.84;5115543;28;20188;-89
2022/06/01 08:18:01;;;;;;;4.80;3.10;;;;;;;18.10;47.67;99220.69;5116432;28;20196;-88
2022/06/01 08:20:29;;;;;;;4.43;2.90;;;;;;;18.49;47.17;99223.28;5117104;28;20287;-88
2022/06/01 08:22:58;;;;;;;13.45;5.40;;;;;;;18.96;46.23;99204.16;5114885;28;20192;-88
2022/06/01 08:25:26;;;;;;;8.13;5.57;;;;;;;19.22;45.45;99211.59;5115518;28;20279;-85
2022/06/01 08:27:53;;;;;;;5.20;3.05;;;;;;;19.13;45.54;99218.84;5116323;28;20229;-83
2022/06/01 08:30:23;;;;;;;4.85;2.75;;;;;;;19.19;46.33;99226.41;5115059;28;20634;-84
2022/06/01 08:32:50;;;;;;;6.72;2.90;;;;;;;19.11;46.06;99226.34;5117233;28;20206;-84
2022/06/01 08:35:20;;;;;;;5.45;2.70;;;;;;;19.14;46.37;99228.75;5118441;28;20297;-84
2022/06/01 08:37:47;;;;;;;3.65;2.75;;;;;;;19.31;45.42;99211.56;5114662;28;20190;-85
2022/06/01 08:40:17;;;;;;;7.55;3.53;;;;;;;19.21;46.31;99208.03;5116511;28;20642;-86
2022/06/01 08:42:50;;;;;;;4.03;2.55;;;;;;;19.14;46.26;99213.22;5116594;28;20202;-84
2022/06/01 08:45:18;;;;;;;4.05;2.00;;;;;;;18.91;45.66;99210.06;5115911;28;20193;-84
2022/06/01 08:47:45;;;;;;;6.47;1.90;;;;;;;18.78;45.57;99211.44;5117163;28;20331;-86
2022/06/01 08:50:19;;;;;;;2.55;1.80;;;;;;;18.33;46.30;99229.38;5116899;28;20233;-84
2022/06/01 08:52:45;;;;;;;3.75;2.35;;;;;;;18.39;45.64;99234.22;5116105;28;20214;-83
2022/06/01 08:55:13;;;;;;;8.10;2.90;;;;;;;18.57;45.30;99226.13;5115852;28;20194;-81
2022/06/01 08:57:48;;;;;;;3.85;2.05;;;;;;;18.95;44.78;99219.69;5115504;28;20203;-82
2022/06/01 09:00:18;;;;;;;2.78;2.20;;;;;;;19.06;43.99;99232.25;5114985;28;20205;-81
2022/06/01 09:02:55;;;;;;;3.28;1.98;;;;;;;18.96;44.56;99235.03;5114748;28;20200;-82
2022/06/01 09:05:30;;;;;;;2.70;1.95;;;;;;;19.01;44.18;99228.25;5116301;28;20198;-86
2022/06/01 09:08:02;;;;;;;3.47;2.33;;;;;;;19.31;44.08;99233.41;5115983;28;20190;-83
2022/06/01 09:10:47;;;;;;;2.80;1.60;;;;;;;19.76;43.05;99234.34;5114615;28;20206;-82
2022/06/01 09:13:23;;;;;;;2.10;1.50;;;;;;;19.62;42.90;99238.47;5115087;28;20224;-82
2022/06/01 09:15:54;;;;;;;3.53;1.45;;;;;;;19.45;42.35;99242.06;5114896;28;20681;-83
2022/06/01 09:18:23;;;;;;;1.95;1.75;;;;;;;19.10;43.38;99241.84;5114896;28;20186;-82
2022/06/01 09:23:34;;;;;;;4.63;2.70;;;;;;;19.57;43.58;99247.13;5095089;28;20205;-84
2022/06/01 09:26:03;;;;;;;2.70;2.25;;;;;;;19.51;43.47;99241.44;5094253;28;20191;-84
2022/06/01 09:28:36;;;;;;;5.72;2.60;;;;;;;19.26;43.68;99246.63;5093552;28;20211;-84
2022/06/01 09:31:19;;;;;;;3.97;2.47;;;;;;;19.62;43.26;99235.75;5113118;28;20544;-81
2022/06/01 09:33:46;;;;;;;3.35;1.90;;;;;;;19.95;42.76;99245.13;5113876;28;20206;-84
2022/06/01 09:36:25;;;;;;;2.97;2.10;;;;;;;19.35;44.27;99234.78;5113760;28;20277;-85
2022/06/01 09:38:54;;;;;;;3.25;1.85;;;;;;;19.28;44.39;99241.03;5113588;28;20198;-86
2022/06/01 09:41:28;;;;;;;3.60;1.70;;;;;;;19.38;44.43;99236.38;5113003;28;20183;-84
2022/06/01 09:43:59;;;;;;;4.60;2.28;;;;;;;19.44;44.23;99234.88;5113125;28;20641;-84
2022/06/01 09:46:33;;;;;;;3.55;1.70;;;;;;;19.31;44.82;99247.03;5113457;28;20185;-84
2022/06/01 09:49:00;;;;;;;3.00;1.80;;;;;;;19.25;45.36;99249.53;5114009;28;20273;-84
2022/06/01 09:51:27;;;;;;;3.95;1.98;;;;;;;19.03;45.21;99243.47;5113621;28;20243;-84
2022/06/01 09:54:08;;;;;;;3.47;1.70;;;;;;;19.55;44.26;99234.66;5113648;28;20297;-86
2022/06/01 09:56:40;;;;;;;2.65;2.45;;;;;;;19.88;43.87;99238.59;5113188;28;20206;-83
2022/06/01 10:07:42;;;;;;;5.60;2.00;;;;;;;20.49;41.38;99225.88;5115244;28;20599;-84
2022/06/01 10:10:22;;;;;;;5.05;3.90;;;;;;;20.16;42.21;99225.63;5113792;28;20203;-82
2022/06/01 10:12:53;;;;;;;2.20;2.00;;;;;;;20.28;41.71;99223.50;5113675;28;20503;-81
2022/06/01 10:15:32;;;;;;;1.98;1.70;;;;;;;20.23;40.67;99219.53;5116736;28;20194;-77
2022/06/01 10:18:05;;;;;;;3.45;1.98;;;;;;;20.18;41.67;99223.59;5091631;28;20548;-77
2022/06/01 10:20:37;;;;;;;2.17;1.65;;;;;;;20.15;42.38;99218.47;5111864;28;20691;-76
2022/06/01 10:23:07;;;;;;;1.93;1.70;;;;;;;20.03;42.04;99222.47;5092382;28;20289;-78
2022/06/01 10:25:40;;;;;;;2.25;1.85;;;;;;;20.44;41.58;99211.81;5091979;28;20434;-78
2022/06/01 10:28:12;;;;;;;2.03;1.83;;;;;;;20.09;42.54;99202.69;5091560;28;20189;-77
2022/06/01 10:30:46;;;;;;;4.55;2.85;;;;;;;19.76;43.61;99197.00;5092528;28;20693;-78
2022/06/01 10:33:19;;;;;;;4.07;2.67;;;;;;;19.74;43.13;99209.06;5092370;28;20326;-77
2022/06/01 10:35:50;;;;;;;3.40;2.08;;;;;;;20.07;42.21;99198.41;5091680;28;20422;-76
2022/06/01 10:38:20;;;;;;;3.60;2.65;;;;;;;20.49;40.50;99192.19;5104710;28;20195;-77
2022/06/01 10:40:54;;;;;;;3.70;2.50;;;;;;;20.58;40.90;99205.78;5112372;28;20639;-74
2022/06/01 10:43:35;;;;;;;5.50;2.30;;;;;;;20.75;40.23;99194.91;5112423;28;20187;-76
2022/06/01 10:46:15;;;;;;;5.13;2.42;;;;;;;20.59;40.46;99203.91;5111212;28;20440;-75
2022/06/01 10:48:50;;;;;;;2.17;1.57;;;;;;;20.25;40.43;99199.22;5112676;28;20533;-76
2022/06/01 10:51:21;;;;;;;5.18;1.90;;;;;;;20.04;40.55;99206.94;5111907;28;20475;-74
2022/06/01 10:53:57;;;;;;;7.17;2.10;;;;;;;20.20;40.59;99199.72;5112201;28;20225;-75
2022/06/01 10:56:25;;;;;;;2.63;1.77;;;;;;;20.47;40.41;99205.19;5116985;28;20945;-75
2022/06/01 10:58:55;;;;;;;2.08;1.58;;;;;;;20.44;40.22;99206.34;5119291;28;20193;-75
2022/06/01 11:01:40;;;;;;;1.63;1.47;;;;;;;20.41;39.83;99190.25;5118751;28;20507;-76
2022/06/01 11:04:25;;;;;;;2.40;1.97;;;;;;;20.60;39.83;99192.81;5117755;28;20435;-75
2022/06/01 11:07:14;;;;;;;1.90;1.50;;;;;;;20.56;39.80;99191.41;5118827;28;20521;-76
2022/06/01 11:09:50;;;;;;;2.65;1.77;;;;;;;20.78;39.17;99202.78;5118985;28;20454;-75
2022/06/01 11:12:30;;;;;;;3.63;1.77;;;;;;;20.83;38.28;99195.81;5118753;28;20588;-76
2022/06/01 11:15:11;;;;;;;1.83;1.57;;;;;;;21.07;37.17;99190.56;5118376;28;20460;-76
2022/06/01 11:17:46;;;;;;;2.10;1.50;;;;;;;21.29;36.30;99183.63;5118827;28;20492;-76
2022/06/01 11:20:27;;;;;;;2.20;1.60;;;;;;;21.05;37.76;99193.47;5118484;28;20420;-76
2022/06/01 11:23:08;;;;;;;3.17;1.60;;;;;;;20.70;38.82;99189.94;5118847;28;20834;-76
2022/06/01 11:25:41;;;;;;;6.00;1.87;;;;;;;20.63;38.91;99194.34;5119054;28;20428;-76
2022/06/01 11:28:27;;;;;;;2.50;1.57;;;;;;;20.53;38.14;99193.56;5118401;28;20416;-76
2022/06/01 11:31:04;;;;;;;2.70;1.80;;;;;;;21.02;37.89;99199.28;5118331;28;20425;-76
2022/06/01 11:33:39;;;;;;;2.00;1.80;;;;;;;21.02;38.40;99196.56;5117973;28;20471;-75
2022/06/01 11:36:13;;;;;;;5.73;1.77;;;;;;;21.21;38.18;99187.19;5117247;28;20436;-76
2022/06/01 11:38:46;;;;;;;1.90;1.50;;;;;;;20.73;38.93;99194.22;5117697;28;20455;-78
2022/06/01 11:41:20;;;;;;;5.03;1.70;;;;;;;20.67;38.75;99203.94;5117678;28;20425;-75
2022/06/01 11:43:53;;;;;;;1.80;1.50;;;;;;;20.82;38.62;99190.50;5117954;28;20952;-79
2022/06/01 11:46:24;;;;;;;4.53;1.63;;;;;;;20.87;38.44;99188.13;5117319;28;20471;-77
2022/06/01 11:48:57;;;;;;;1.50;1.30;;;;;;;20.58;38.53;99200.31;5117782;28;20432;-75
2022/06/01 11:51:44;;;;;;;2.13;1.70;;;;;;;20.69;38.57;99198.28;5117779;28;20468;-78
2022/06/01 11:54:14;;;;;;;2.13;1.40;;;;;;;21.00;37.73;99193.13;5118106;28;20914;-77
2022/06/01 11:56:45;;;;;;;2.30;1.50;;;;;;;20.93;37.86;99190.19;5118428;28;20948;-76
2022/06/01 11:59:21;;;;;;;1.60;1.30;;;;;;;21.15;36.44;99183.25;5118205;28;20855;-77
2022/06/01 12:01:56;;;;;;;2.50;1.80;;;;;;;20.80;36.75;99176.13;5117900;28;20433;-77
2022/06/01 12:04:32;;;;;;;3.40;1.23;;;;;;;20.77;37.21;99198.34;5118031;28;20412;-77
2022/06/01 12:07:06;;;;;;;3.77;1.20;;;;;;;20.87;35.97;99187.25;5115316;28;20563;-77
2022/06/01 12:09:47;;;;;;;1.40;1.30;;;;;;;20.68;35.47;99178.28;5115397;28;20898;-79
2022/06/01 12:12:26;;;;;;;3.30;1.00;;;;;;;20.99;35.21;99175.00;5114693;28;20433;-77
2022/06/01 12:14:59;;;;;;;2.10;1.53;;;;;;;20.93;34.94;99198.41;5114651;28;20483;-78